createdAt,value
2023-05-19T00:02:13.156Z,74.79
2023-05-19T00:04:48.386Z,74.84
2023-05-19T00:07:25.991Z,75.11
2023-05-19T00:10:00.188Z,75.26
2023-05-19T00:12:34.135Z,75.31
2023-05-19T00:15:10.823Z,75.58
2023-05-19T00:17:44.240Z,75.58
2023-05-19T00:20:18.273Z,75.78
2023-05-19T00:22:52.655Z,75.96
2023-05-19T00:25:26.357Z,76.09
2023-05-19T00:28:00.149Z,76.20
2023-05-19T00:30:33.903Z,76.44
2023-05-19T00:33:07.657Z,76.50
2023-05-19T00:35:41.739Z,76.46
2023-05-19T00:38:15.082Z,76.48
2023-05-19T00:40:48.708Z,76.67
2023-05-19T00:43:21.955Z,76.83
2023-05-19T00:45:55.388Z,76.88
2023-05-19T00:48:29.568Z,76.84
2023-05-19T00:51:06.708Z,76.78
2023-05-19T00:53:40.357Z,76.79
2023-05-19T00:56:13.829Z,76.92
2023-05-19T00:58:47.740Z,77.02
2023-05-19T01:01:21.907Z,77.03
2023-05-19T01:03:57.082Z,77.24
2023-05-19T01:06:30.558Z,77.70
2023-05-19T01:09:04.248Z,77.90
2023-05-19T01:11:37.263Z,77.76
2023-05-19T01:14:10.750Z,77.99
2023-05-19T01:16:49.064Z,78.13
2023-05-19T01:19:46.881Z,78.20
2023-05-19T01:22:38.171Z,78.31
2023-05-19T01:25:43.996Z,78.26
2023-05-19T01:28:54.700Z,78.42
2023-05-19T01:31:29.406Z,78.78
2023-05-19T01:34:05.152Z,78.68
2023-05-19T01:36:40.405Z,78.79
2023-05-19T01:39:14.976Z,78.88
2023-05-19T01:41:49.061Z,79.03
2023-05-19T01:44:23.592Z,78.94
2023-05-19T01:46:57.395Z,78.94
2023-05-19T01:49:30.451Z,79.18
2023-05-19T01:52:03.710Z,79.01
2023-05-19T01:54:37.287Z,79.42
2023-05-19T01:57:26.276Z,79.28
2023-05-19T02:00:16.419Z,79.38
2023-05-19T02:03:06.138Z,79.48
2023-05-19T02:05:44.553Z,79.67
2023-05-19T02:08:26.036Z,79.77
2023-05-19T02:11:04.257Z,79.95
2023-05-19T02:13:45.034Z,79.76
2023-05-19T02:16:20.267Z,79.99
2023-05-19T02:18:54.227Z,80.01
2023-05-19T02:21:27.456Z,80.12
2023-05-19T02:24:01.374Z,79.93
2023-05-19T02:26:34.486Z,80.01
2023-05-19T02:29:10.182Z,80.17
2023-05-19T02:31:43.435Z,80.23
2023-05-19T02:34:16.795Z,80.45
2023-05-19T02:36:50.822Z,80.50
2023-05-19T02:39:24.098Z,80.82
2023-05-19T02:41:57.944Z,80.76
2023-05-19T02:44:31.169Z,80.97
2023-05-19T02:47:04.232Z,81.11
2023-05-19T02:49:38.108Z,81.32
2023-05-19T02:52:12.317Z,81.43
2023-05-19T02:54:46.457Z,81.43
2023-05-19T02:57:19.629Z,81.73
2023-05-19T02:59:53.053Z,81.54
2023-05-19T03:02:26.323Z,81.83
2023-05-19T03:05:01.958Z,81.90
2023-05-19T03:07:35.377Z,81.96
2023-05-19T03:10:10.716Z,81.80
2023-05-19T03:12:43.907Z,81.98
2023-05-19T03:15:17.676Z,82.02
2023-05-19T03:17:51.153Z,81.87
2023-05-19T03:20:24.770Z,82.23
2023-05-19T03:22:58.151Z,82.31
2023-05-19T03:25:31.697Z,82.18
2023-05-19T03:28:05.364Z,82.39
2023-05-19T03:30:39.066Z,82.51
2023-05-19T03:33:17.170Z,82.85
2023-05-19T03:35:51.068Z,82.95
2023-05-19T03:38:24.252Z,82.88
2023-05-19T03:41:02.271Z,82.91
2023-05-19T03:43:35.183Z,82.96
2023-05-19T03:46:09.715Z,82.82
2023-05-19T03:49:03.138Z,82.94
2023-05-19T03:51:59.557Z,83.00
2023-05-19T03:54:39.979Z,83.04
2023-05-19T03:57:13.332Z,83.29
2023-05-19T03:59:46.718Z,83.34
2023-05-19T04:02:19.932Z,83.28
2023-05-19T04:04:54.390Z,83.49
2023-05-19T04:07:27.696Z,83.23
2023-05-19T04:10:00.988Z,82.82
2023-05-19T04:12:34.576Z,82.81
2023-05-19T04:15:11.542Z,82.71
2023-05-19T04:17:45.728Z,82.80
2023-05-19T04:20:18.999Z,82.57
2023-05-19T04:22:52.338Z,82.34
2023-05-19T04:25:25.793Z,82.47
2023-05-19T04:27:59.333Z,81.90
2023-05-19T04:30:33.950Z,81.83
2023-05-19T04:33:07.938Z,81.49
2023-05-19T04:35:41.678Z,80.95
2023-05-19T04:38:19.143Z,80.82
2023-05-19T04:40:53.461Z,80.85
2023-05-19T04:43:28.718Z,80.48
2023-05-19T04:46:06.431Z,80.07
2023-05-19T04:48:40.266Z,80.05
2023-05-19T04:51:14.630Z,80.10
2023-05-19T04:53:48.401Z,79.50
2023-05-19T04:56:22.251Z,79.61
2023-05-19T04:58:56.722Z,79.35
2023-05-19T05:01:31.587Z,79.53
2023-05-19T05:04:17.300Z,79.34
2023-05-19T05:07:36.562Z,78.92
2023-05-19T05:11:07.710Z,78.28
2023-05-19T05:14:21.223Z,78.37
2023-05-19T05:17:16.464Z,78.32
2023-05-19T05:19:51.252Z,78.03
2023-05-19T05:22:25.587Z,77.84
2023-05-19T05:25:00.913Z,78.02
2023-05-19T05:27:34.380Z,78.44
2023-05-19T05:30:09.499Z,78.19
2023-05-19T05:32:43.834Z,78.30
2023-05-19T05:35:27.069Z,77.87
2023-05-19T05:38:01.926Z,78.09
2023-05-19T05:40:35.324Z,78.05
2023-05-19T05:43:09.282Z,77.68
2023-05-19T05:45:47.222Z,77.73
2023-05-19T05:48:21.759Z,77.56
2023-05-19T05:50:58.169Z,77.50
2023-05-19T05:53:36.342Z,77.42
2023-05-19T05:56:12.021Z,77.62
2023-05-19T05:58:51.057Z,77.50
2023-05-19T06:01:24.421Z,77.58
2023-05-19T06:03:58.566Z,77.69
2023-05-19T06:06:33.011Z,77.42
2023-05-19T06:09:07.988Z,76.82
2023-05-19T06:11:41.238Z,77.04
2023-05-19T06:14:15.294Z,77.42
2023-05-19T06:17:09.578Z,76.82
2023-05-19T06:19:43.604Z,76.83
2023-05-19T06:22:17.054Z,76.72
2023-05-19T06:24:50.715Z,76.62
2023-05-19T06:27:26.238Z,76.78
2023-05-19T06:29:59.727Z,76.48
2023-05-19T06:32:33.734Z,76.41
2023-05-19T06:35:08.157Z,76.43
2023-05-19T06:37:42.113Z,77.01
2023-05-19T06:40:17.286Z,76.81
2023-05-19T06:42:51.929Z,77.24
2023-05-19T06:45:37.979Z,77.50
2023-05-19T06:48:11.600Z,76.54
2023-05-19T06:50:46.384Z,76.55
2023-05-19T06:53:20.942Z,76.62
2023-05-19T06:55:59.714Z,76.69
2023-05-19T06:58:37.266Z,76.38
2023-05-19T07:01:11.557Z,76.18
2023-05-19T07:03:50.004Z,75.91
2023-05-19T07:06:23.342Z,75.48
2023-05-19T07:08:57.439Z,75.30
2023-05-19T07:11:31.482Z,76.07
2023-05-19T07:14:04.880Z,75.93
2023-05-19T07:16:38.389Z,75.77
2023-05-19T07:19:12.085Z,75.66
2023-05-19T07:21:45.415Z,75.13
2023-05-19T07:24:19.889Z,74.71
2023-05-19T07:26:53.339Z,74.84
2023-05-19T07:29:27.175Z,74.37
2023-05-19T07:32:00.810Z,73.39
2023-05-19T07:34:34.362Z,73.05
2023-05-19T07:37:08.126Z,73.41
2023-05-19T07:39:41.582Z,72.79
2023-05-19T07:42:15.080Z,72.61
2023-05-19T07:44:48.412Z,72.46
2023-05-19T07:47:21.904Z,72.45
2023-05-19T07:49:55.287Z,72.50
2023-05-19T07:52:31.658Z,72.88
2023-05-19T07:55:08.498Z,72.60
2023-05-19T07:57:42.625Z,72.41
2023-05-19T08:00:20.371Z,72.27
2023-05-19T08:02:58.350Z,72.56
2023-05-19T08:05:32.989Z,72.40
2023-05-19T08:08:08.605Z,71.66
2023-05-19T08:10:44.468Z,71.25
2023-05-19T08:13:19.600Z,70.63
2023-05-19T08:16:01.932Z,70.62
2023-05-19T08:18:36.987Z,70.43
2023-05-19T08:21:11.370Z,69.99
2023-05-19T08:23:45.536Z,69.44
2023-05-19T08:26:22.279Z,69.40
2023-05-19T08:28:57.639Z,69.80
2023-05-19T08:31:31.541Z,69.26
2023-05-19T08:34:05.009Z,69.04
2023-05-19T08:36:38.410Z,69.72
2023-05-19T08:39:12.097Z,69.07
2023-05-19T08:41:45.693Z,68.87
2023-05-19T08:44:19.303Z,68.36
2023-05-19T08:46:56.041Z,67.66
2023-05-19T08:49:34.333Z,68.23
2023-05-19T08:52:17.359Z,67.71
2023-05-19T08:54:56.144Z,67.61
2023-05-19T08:57:29.736Z,67.43
2023-05-19T09:00:05.199Z,67.71
2023-05-19T09:02:55.050Z,67.68
2023-05-19T09:05:37.562Z,67.43
2023-05-19T09:08:09.155Z,66.83
2023-05-19T09:10:42.763Z,66.84
2023-05-19T09:13:16.732Z,67.25
2023-05-19T09:15:52.442Z,67.27
2023-05-19T09:18:25.842Z,66.95
2023-05-19T09:21:03.226Z,66.62
2023-05-19T09:23:37.188Z,66.75
2023-05-19T09:26:11.063Z,66.98
2023-05-19T09:28:45.506Z,66.64
2023-05-19T09:31:19.202Z,66.24
2023-05-19T09:33:56.652Z,65.91
2023-05-19T09:36:32.527Z,66.01
2023-05-19T09:39:14.610Z,65.41
2023-05-19T09:41:48.800Z,65.30
2023-05-19T09:44:31.063Z,65.06
2023-05-19T09:47:07.781Z,64.84
2023-05-19T09:49:49.469Z,64.85
2023-05-19T09:52:23.640Z,65.11
2023-05-19T09:54:58.098Z,64.84
2023-05-19T09:57:38.987Z,64.09
2023-05-19T10:00:17.319Z,64.48
2023-05-19T10:02:52.639Z,65.03
2023-05-19T10:05:28.444Z,65.22
2023-05-19T10:08:03.040Z,64.96
2023-05-19T10:10:40.532Z,64.94
2023-05-19T10:13:14.360Z,65.01
2023-05-19T10:15:58.085Z,64.47
2023-05-19T10:18:34.667Z,64.28
2023-05-19T10:21:18.201Z,63.94
2023-05-19T10:23:52.685Z,63.86
2023-05-19T10:26:27.831Z,63.46
2023-05-19T10:29:01.509Z,63.23
2023-05-19T10:31:37.701Z,63.42
2023-05-19T10:34:42.250Z,63.32
2023-05-19T10:37:27.584Z,62.65
2023-05-19T10:40:01.917Z,62.90
2023-05-19T10:42:42.585Z,62.72
2023-05-19T10:45:20.100Z,62.40
2023-05-19T10:47:56.023Z,62.22
2023-05-19T10:50:37.051Z,62.99
2023-05-19T10:53:19.581Z,63.04
2023-05-19T10:55:59.473Z,63.67
2023-05-19T10:58:50.853Z,63.07
2023-05-19T11:01:26.743Z,62.99
2023-05-19T11:04:09.413Z,62.35
2023-05-19T11:07:24.810Z,63.24
2023-05-19T11:09:56.427Z,63.77
2023-05-19T11:12:44.358Z,64.50
2023-05-19T11:15:18.090Z,64.67
2023-05-19T11:17:52.684Z,65.19
2023-05-19T11:20:27.497Z,65.42
2023-05-19T11:23:10.972Z,65.13
2023-05-19T11:25:49.332Z,65.57
2023-05-19T11:28:26.902Z,65.70
2023-05-19T11:31:02.561Z,65.64
2023-05-19T11:33:36.304Z,65.74
2023-05-19T11:36:10.202Z,65.31
2023-05-19T11:38:44.152Z,65.15
2023-05-19T11:41:20.778Z,65.53
2023-05-19T11:43:54.261Z,66.34
2023-05-19T11:46:27.717Z,66.34
2023-05-19T11:49:02.588Z,66.27
2023-05-19T11:51:36.401Z,66.43
2023-05-19T11:54:10.092Z,66.55
2023-05-19T11:56:44.821Z,66.35
2023-05-19T11:59:18.473Z,65.48
2023-05-19T12:01:52.028Z,65.74
2023-05-19T12:04:26.020Z,65.66
2023-05-19T12:07:00.040Z,65.42
2023-05-19T12:09:35.142Z,65.57
2023-05-19T12:12:10.359Z,65.96
2023-05-19T12:14:45.852Z,66.30
2023-05-19T12:17:21.070Z,66.32
2023-05-19T12:19:54.898Z,66.30
2023-05-19T12:22:28.487Z,66.71
2023-05-19T12:25:02.109Z,66.32
2023-05-19T12:27:39.538Z,66.32
2023-05-19T12:30:15.897Z,66.73
2023-05-19T12:32:52.163Z,66.59
2023-05-19T12:35:29.875Z,66.56
2023-05-19T12:38:06.769Z,65.87
2023-05-19T12:40:40.901Z,66.01
2023-05-19T12:43:22.441Z,66.26
2023-05-19T12:45:56.087Z,66.27
2023-05-19T12:48:30.849Z,66.30
2023-05-19T12:51:05.890Z,66.47
2023-05-19T12:53:41.262Z,66.63
2023-05-19T12:56:16.144Z,67.03
2023-05-19T12:58:49.779Z,66.80
2023-05-19T13:01:24.444Z,66.66
2023-05-19T13:03:58.732Z,66.23
2023-05-19T13:06:33.432Z,66.60
2023-05-19T13:09:07.449Z,66.18
2023-05-19T13:11:40.882Z,65.43
2023-05-19T13:14:18.692Z,65.87
2023-05-19T13:16:52.349Z,65.92
2023-05-19T13:19:28.621Z,64.85
2023-05-19T13:22:01.089Z,63.78
2023-05-19T13:24:34.269Z,64.85
2023-05-19T13:27:08.270Z,64.89
2023-05-19T13:29:41.501Z,64.49
2023-05-19T13:32:14.830Z,64.83
2023-05-19T13:34:48.342Z,64.58
2023-05-19T13:37:21.854Z,64.81
2023-05-19T13:39:55.017Z,64.66
2023-05-19T13:42:29.213Z,64.46
2023-05-19T13:45:02.614Z,64.47
2023-05-19T13:47:36.348Z,64.52
2023-05-19T13:50:11.248Z,64.64
2023-05-19T13:52:45.327Z,64.27
2023-05-19T13:55:20.079Z,64.09
2023-05-19T13:57:53.480Z,64.64
2023-05-19T14:00:27.487Z,64.56
2023-05-19T15:42:40.957Z,68.49
2023-05-19T15:45:15.095Z,68.50
2023-05-19T15:47:48.979Z,68.92
2023-05-19T15:50:22.875Z,68.88
2023-05-19T15:52:57.020Z,68.48
2023-05-19T15:55:30.729Z,68.71
2023-05-19T15:58:04.077Z,68.95
2023-05-19T16:00:37.676Z,68.93
2023-05-19T16:03:11.440Z,68.76
2023-05-19T16:05:46.421Z,68.86
2023-05-19T16:08:21.625Z,68.78
2023-05-19T16:10:55.517Z,68.71
2023-05-19T16:13:30.714Z,68.89
2023-05-19T16:16:04.430Z,68.90
2023-05-19T16:18:38.421Z,69.18
2023-05-19T16:21:12.083Z,69.36
2023-05-19T16:23:45.839Z,69.52
2023-05-19T16:26:19.318Z,69.72
2023-05-19T16:28:53.056Z,69.86
2023-05-19T16:31:26.518Z,70.21
2023-05-19T16:34:00.237Z,70.09
2023-05-19T16:36:33.614Z,69.92
2023-05-19T16:39:09.434Z,70.09
2023-05-19T16:41:42.994Z,70.20
2023-05-19T16:44:17.469Z,70.32
2023-05-19T16:46:51.038Z,70.18
2023-05-19T16:49:24.604Z,70.54
2023-05-19T16:51:58.261Z,70.46
2023-05-19T16:54:32.295Z,70.26
2023-05-19T16:57:06.169Z,70.32
2023-05-19T16:59:41.889Z,70.40
2023-05-19T17:02:16.699Z,70.40
2023-05-19T17:04:51.719Z,70.60
2023-05-19T17:07:28.134Z,70.86
2023-05-19T17:10:01.668Z,70.90
2023-05-19T17:12:35.690Z,70.96
2023-05-19T17:15:11.443Z,71.09
2023-05-19T17:17:43.713Z,71.12
2023-05-19T17:20:18.939Z,71.63
2023-05-19T17:22:53.803Z,71.39
2023-05-19T17:25:27.962Z,71.43
2023-05-19T17:28:03.044Z,71.52
2023-05-19T17:30:37.137Z,71.75
2023-05-19T17:33:10.718Z,71.68
2023-05-19T17:35:46.007Z,71.97
2023-05-19T17:38:20.529Z,72.40
2023-05-19T17:40:54.707Z,72.14
2023-05-19T17:43:29.912Z,72.15
2023-05-19T17:46:05.138Z,72.34
2023-05-19T17:48:39.958Z,72.06
2023-05-19T17:51:13.878Z,72.34
2023-05-19T17:53:48.678Z,72.39
2023-05-19T17:56:24.622Z,72.54
2023-05-19T17:58:59.436Z,72.87
2023-05-19T18:01:35.054Z,72.77
2023-05-19T18:04:10.409Z,72.86
2023-05-19T18:06:46.279Z,73.24
2023-05-19T18:09:27.875Z,73.55
2023-05-19T18:12:03.888Z,73.63
2023-05-19T18:14:38.667Z,73.56
2023-05-19T18:17:12.833Z,73.64
2023-05-19T18:19:47.308Z,73.62
2023-05-19T18:22:20.697Z,73.83
2023-05-19T18:24:54.315Z,74.06
2023-05-19T18:27:29.438Z,74.16
2023-05-19T18:30:03.176Z,74.29
2023-05-19T18:32:37.007Z,74.36
2023-05-19T18:35:12.453Z,74.37
2023-05-19T18:37:50.989Z,74.69
2023-05-19T18:40:25.367Z,74.91
2023-05-19T18:42:59.138Z,75.26
2023-05-19T18:45:33.031Z,75.42
2023-05-19T18:48:09.690Z,75.62
2023-05-19T18:50:45.674Z,75.80
2023-05-19T18:53:20.747Z,76.08
2023-05-19T18:55:57.739Z,76.03
2023-05-19T18:58:30.560Z,76.00
2023-05-19T19:01:05.926Z,76.36
2023-05-19T19:03:42.459Z,76.37
2023-05-19T19:06:17.481Z,76.63
2023-05-19T19:08:51.132Z,76.71
2023-05-19T19:11:24.637Z,76.92
2023-05-19T19:13:59.525Z,77.10
2023-05-19T19:16:33.479Z,77.21
2023-05-19T19:19:07.923Z,77.22
2023-05-19T19:21:41.872Z,77.41
2023-05-19T19:24:15.369Z,77.57
2023-05-19T19:26:49.220Z,77.53
2023-05-19T19:29:22.958Z,77.85
2023-05-19T19:31:56.564Z,77.79
2023-05-19T19:34:30.689Z,77.91
2023-05-19T19:37:04.432Z,78.13
2023-05-19T19:39:44.211Z,78.31
2023-05-19T19:42:20.253Z,78.36
2023-05-19T19:45:00.306Z,78.35
2023-05-19T19:47:40.529Z,78.27
2023-05-19T19:50:16.730Z,78.11
2023-05-19T19:52:52.113Z,78.43
2023-05-19T19:55:29.839Z,78.63
2023-05-19T19:58:09.103Z,78.74
2023-05-19T20:00:43.944Z,78.56
2023-05-19T20:03:19.800Z,79.18
2023-05-19T20:05:58.956Z,79.19
2023-05-19T20:08:37.340Z,79.27
2023-05-19T20:11:15.589Z,79.32
2023-05-19T20:13:53.698Z,79.05
2023-05-19T20:16:30.167Z,79.37
2023-05-19T20:19:09.306Z,79.31
2023-05-19T20:21:47.480Z,79.47
2023-05-19T20:24:25.026Z,79.75
2023-05-19T20:27:03.192Z,79.67
2023-05-19T20:29:40.228Z,79.62
2023-05-19T20:32:14.752Z,79.62
2023-05-19T20:34:50.305Z,79.83
2023-05-19T20:37:27.129Z,80.13
2023-05-19T20:40:01.353Z,80.19
2023-05-19T20:42:38.769Z,79.80
2023-05-19T20:45:14.297Z,80.30
2023-05-19T20:47:47.873Z,80.30
2023-05-19T20:50:24.939Z,80.50
2023-05-19T20:53:01.552Z,80.32
2023-05-19T20:55:39.103Z,80.70
2023-05-19T20:58:18.573Z,80.69
2023-05-19T21:00:58.234Z,81.02
2023-05-19T21:03:32.500Z,80.79
2023-05-19T21:06:07.544Z,81.11
2023-05-19T21:08:42.619Z,81.13
2023-05-19T21:11:16.104Z,81.27
2023-05-19T21:13:51.764Z,81.26
2023-05-19T21:16:26.726Z,81.46
2023-05-19T21:19:00.531Z,81.40
2023-05-19T21:21:34.492Z,81.77
2023-05-19T21:24:10.884Z,81.70
2023-05-19T21:26:49.748Z,81.50
2023-05-19T21:29:24.026Z,81.85
2023-05-19T21:32:00.122Z,81.46
2023-05-19T21:34:36.478Z,81.69
2023-05-19T21:37:12.129Z,81.81
2023-05-19T21:39:48.834Z,81.81
2023-05-19T21:42:23.103Z,81.87
2023-05-19T21:44:58.072Z,82.01
2023-05-19T21:47:33.721Z,81.88
2023-05-19T21:50:11.497Z,81.85
2023-05-19T21:52:45.136Z,82.58
2023-05-19T21:55:19.093Z,82.08
2023-05-19T21:57:52.609Z,82.18
2023-05-19T22:00:26.099Z,82.28
2023-05-19T22:02:59.532Z,82.13
2023-05-19T22:05:35.647Z,82.59
2023-05-19T22:08:09.332Z,82.48
2023-05-19T22:10:43.379Z,82.44
2023-05-19T22:13:16.726Z,82.80
2023-05-19T22:15:50.272Z,82.81
2023-05-19T22:18:24.130Z,82.87
2023-05-19T22:20:58.140Z,82.94
2023-05-19T22:23:31.574Z,82.89
2023-05-19T22:26:05.080Z,83.15
2023-05-19T22:28:38.694Z,83.08
2023-05-19T22:31:12.172Z,83.00
2023-05-19T22:33:45.636Z,83.33
2023-05-19T22:36:19.530Z,83.08
2023-05-19T22:38:53.071Z,83.39
2023-05-19T22:41:26.773Z,83.23
2023-05-19T22:44:00.124Z,82.97
2023-05-19T22:46:34.514Z,83.38
2023-05-19T22:49:07.867Z,83.07
2023-05-19T22:51:41.598Z,83.31
2023-05-19T22:54:14.976Z,83.28
2023-05-19T22:56:49.140Z,83.44
2023-05-19T22:59:22.796Z,83.26
2023-05-19T23:01:56.360Z,83.05
2023-05-19T23:04:30.005Z,83.08
2023-05-19T23:07:04.222Z,83.31
2023-05-19T23:09:37.587Z,83.01
2023-05-19T23:12:11.700Z,83.13
2023-05-19T23:14:45.205Z,83.22
2023-05-19T23:17:18.594Z,83.10
2023-05-19T23:19:52.075Z,83.06
2023-05-19T23:22:25.606Z,83.63
2023-05-19T23:24:59.116Z,83.28
2023-05-19T23:27:32.896Z,83.47
2023-05-19T23:30:07.625Z,83.66
2023-05-19T23:32:41.572Z,83.67
2023-05-19T23:35:17.654Z,83.37
2023-05-19T23:37:50.662Z,83.72
2023-05-19T23:40:24.433Z,83.64
2023-05-19T23:42:57.784Z,83.46
2023-05-19T23:45:30.903Z,83.65
2023-05-19T23:48:04.353Z,83.38
2023-05-19T23:50:37.619Z,83.13
2023-05-19T23:53:10.870Z,83.36
2023-05-19T23:55:43.987Z,83.52
2023-05-19T23:58:17.341Z,83.66
